Terminal Aerodrome Forecast
Issued by NWS

Home | Current Version | Previous Version | Text Only | Print | Product List | Glossary On
Versions: 1 2 3 4 5 6 7 8 9 10 11 12
000
FTUS46 KSEW 302300
TAFBLI
TAF
KBLI 302320Z 3100/3124 17010G20KT P6SM BKN200
     FM310600 16010G20KT P6SM -RA OVC045
     FM310800 18015G25KT P6SM -RA BKN025 OVC040
     FM311400 19010G20KT P6SM BKN050 BKN100
     FM311800 19010G20KT P6SM SCT050 BKN100=

USA.gov is the U.S. government's official web portal to all federal, state and local government web resources and services.